TimeCDT,TemperatureF,Dew PointF,Humidity,Sea Level PressureIn,VisibilityMPH,Wind Direction,Wind SpeedMPH,Gust SpeedMPH,PrecipitationIn,Events,Conditions,WindDirDegrees,DateUTC
12:55 AM,63.3,54.9,74,29.94,10.0,Calm,Calm,-,N/A,,Overcast,0,2012-10-03 05:55:00
1:55 AM,64.0,53.8,69,29.95,10.0,Calm,Calm,-,N/A,,Scattered Clouds,0,2012-10-03 06:55:00
2:55 AM,63.1,54.1,72,29.96,10.0,South,4.6,-,N/A,,Scattered Clouds,190,2012-10-03 07:55:00
3:55 AM,61.7,55.4,80,29.96,10.0,Calm,Calm,-,N/A,,Scattered Clouds,0,2012-10-03 08:55:00
4:55 AM,63.5,53.8,71,29.96,10.0,SW,5.8,-,N/A,,Clear,230,2012-10-03 09:55:00
5:55 AM,59.5,55.0,85,29.99,10.0,Calm,Calm,-,N/A,,Mostly Cloudy,0,2012-10-03 10:55:00
6:55 AM,61.2,54.1,78,30.00,10.0,Calm,Calm,-,N/A,,Clear,0,2012-10-03 11:55:00
7:55 AM,62.1,54.7,77,30.02,10.0,South,3.5,-,N/A,,Partly Cloudy,180,2012-10-03 12:55:00
8:55 AM,64.4,55.6,73,30.04,10.0,South,5.8,-,N/A,,Clear,190,2012-10-03 13:55:00
9:55 AM,70.0,56.3,62,30.06,10.0,SSW,8.1,-,N/A,,Clear,210,2012-10-03 14:55:00
10:55 AM,71.8,55.8,57,30.06,10.0,SW,9.2,-,N/A,,Partly Cloudy,230,2012-10-03 15:55:00
11:55 AM,73.2,56.1,55,30.06,10.0,South,8.1,-,N/A,,Partly Cloudy,190,2012-10-03 16:55:00
12:55 PM,73.8,53.2,49,30.06,10.0,Variable,5.8,-,N/A,,Scattered Clouds,0,2012-10-03 17:55:00
1:55 PM,74.8,52.2,45,30.04,10.0,SSW,11.5,-,N/A,,Scattered Clouds,200,2012-10-03 18:55:00
2:55 PM,75.4,55.8,50,30.02,10.0,SSW,4.6,-,N/A,,Partly Cloudy,210,2012-10-03 19:55:00
3:55 PM,75.4,57.4,53,30.02,10.0,Variable,4.6,-,N/A,,Clear,0,2012-10-03 20:55:00
4:55 PM,76.5,57.9,53,30.03,10.0,SSW,9.2,-,N/A,,Clear,200,2012-10-03 21:55:00
5:55 PM,74.3,57.6,56,30.03,10.0,South,5.8,-,N/A,,Clear,180,2012-10-03 22:55:00
6:55 PM,70.2,57.7,65,30.04,10.0,Calm,Calm,-,N/A,,Clear,0,2012-10-03 23:55:00
7:55 PM,64.0,57.9,80,30.06,10.0,Calm,Calm,-,N/A,,Clear,0,2012-10-04 00:55:00
8:55 PM,61.2,57.4,87,30.08,10.0,Calm,Calm,-,N/A,,Clear,0,2012-10-04 01:55:00
9:55 PM,59.5,56.7,90,30.09,10.0,Calm,Calm,-,N/A,,Clear,0,2012-10-04 02:55:00
10:55 PM,58.3,55.8,91,30.10,10.0,ENE,3.5,-,N/A,,Clear,70,2012-10-04 03:55:00
11:55 PM,57.2,55.2,93,30.11,10.0,East,3.5,-,N/A,,Clear,90,2012-10-04 04:55:00